sensor_id;sensor_type;location;lat;lon;timestamp;P1;durP1;ratioP1;P2;durP2;ratioP2
80868;SDS011;70295;40.182;44.498;2023-10-09T00:00:51;11.8;;;5.7;;
80868;SDS011;70295;40.182;44.498;2023-10-09T00:02:51;12.5;;;6.9;;
80868;SDS011;70295;40.182;44.498;2023-10-09T00:04:51;14.4;;;6;;
80868;SDS011;70295;40.182;44.498;2023-10-09T00:06:51;13.1;;;6.1;;
80868;SDS011;70295;40.182;44.498;2023-10-09T00:08:51;15;;;6.2;;
80868;SDS011;70295;40.182;44.498;2023-10-09T00:10:51;13.6;;;6.3;;
80868;SDS011;70295;40.182;44.498;2023-10-09T00:12:51;12.6;;;6.3;;
80868;SDS011;70295;40.182;44.498;2023-10-09T00:14:51;11.6;;;6.3;;
80868;SDS011;70295;40.182;44.498;2023-10-09T00:16:51;12.9;;;6.2;;
80868;SDS011;70295;40.182;44.498;2023-10-09T00:18:51;13;;;5.8;;
80868;SDS011;70295;40.182;44.498;2023-10-09T00:20:51;14.1;;;6.5;;
80868;SDS011;70295;40.182;44.498;2023-10-09T00:22:51;14.2;;;6.3;;
80868;SDS011;70295;40.182;44.498;2023-10-09T00:24:56;13.8;;;6.1;;
80868;SDS011;70295;40.182;44.498;2023-10-09T00:26:51;12.6;;;6;;
80868;SDS011;70295;40.182;44.498;2023-10-09T00:28:51;14.5;;;5.6;;
80868;SDS011;70295;40.182;44.498;2023-10-09T00:30:51;13.1;;;6.4;;
80868;SDS011;70295;40.182;44.498;2023-10-09T00:32:51;13.6;;;6.3;;
80868;SDS011;70295;40.182;44.498;2023-10-09T00:34:52;14.2;;;6.3;;
80868;SDS011;70295;40.182;44.498;2023-10-09T00:36:51;11.5;;;6.2;;
80868;SDS011;70295;40.182;44.498;2023-10-09T00:38:51;14.7;;;6.4;;
80868;SDS011;70295;40.182;44.498;2023-10-09T00:40:51;15.2;;;6.5;;
80868;SDS011;70295;40.182;44.498;2023-10-09T00:42:51;14.2;;;6.6;;
80868;SDS011;70295;40.182;44.498;2023-10-09T00:44:51;14.2;;;6.3;;
80868;SDS011;70295;40.182;44.498;2023-10-09T00:46:51;14.9;;;6.5;;
80868;SDS011;70295;40.182;44.498;2023-10-09T00:48:57;11.8;;;6.2;;
80868;SDS011;70295;40.182;44.498;2023-10-09T00:50:51;14.6;;;6.4;;
80868;SDS011;70295;40.182;44.498;2023-10-09T00:52:52;11.3;;;5.8;;
80868;SDS011;70295;40.182;44.498;2023-10-09T00:54:51;11.2;;;5.7;;
80868;SDS011;70295;40.182;44.498;2023-10-09T00:56:51;13.6;;;6.2;;
80868;SDS011;70295;40.182;44.498;2023-10-09T00:58:53;12.1;;;5.4;;
80868;SDS011;70295;40.182;44.498;2023-10-09T01:00:51;12.2;;;5.5;;
80868;SDS011;70295;40.182;44.498;2023-10-09T01:02:51;12.1;;;6;;
80868;SDS011;70295;40.182;44.498;2023-10-09T01:04:51;12.9;;;5.4;;
80868;SDS011;70295;40.182;44.498;2023-10-09T01:06:51;12.2;;;5.6;;
80868;SDS011;70295;40.182;44.498;2023-10-09T01:08:51;11.5;;;5.4;;
80868;SDS011;70295;40.182;44.498;2023-10-09T01:10:51;13.6;;;6;;
80868;SDS011;70295;40.182;44.498;2023-10-09T01:12:51;12.8;;;5.7;;
80868;SDS011;70295;40.182;44.498;2023-10-09T01:14:51;12.3;;;5.8;;
80868;SDS011;70295;40.182;44.498;2023-10-09T01:16:51;11.5;;;6.1;;
80868;SDS011;70295;40.182;44.498;2023-10-09T01:18:53;12.2;;;5.6;;
80868;SDS011;70295;40.182;44.498;2023-10-09T01:20:51;12.2;;;5.3;;
80868;SDS011;70295;40.182;44.498;2023-10-09T01:22:51;10;;;5.5;;
80868;SDS011;70295;40.182;44.498;2023-10-09T01:24:51;10.5;;;5.3;;
80868;SDS011;70295;40.182;44.498;2023-10-09T01:26:51;9.6;;;5.1;;
80868;SDS011;70295;40.182;44.498;2023-10-09T01:28:51;10.6;;;5.5;;
80868;SDS011;70295;40.182;44.498;2023-10-09T01:30:51;10.2;;;5.6;;
80868;SDS011;70295;40.182;44.498;2023-10-09T01:32:51;11.5;;;5.2;;
80868;SDS011;70295;40.182;44.498;2023-10-09T01:34:51;9.2;;;5.3;;
80868;SDS011;70295;40.182;44.498;2023-10-09T01:36:51;12.5;;;5.5;;
80868;SDS011;70295;40.182;44.498;2023-10-09T01:38:51;10.9;;;5.2;;
80868;SDS011;70295;40.182;44.498;2023-10-09T01:40:51;10.5;;;5.6;;
80868;SDS011;70295;40.182;44.498;2023-10-09T01:42:51;12.4;;;6;;
80868;SDS011;70295;40.182;44.498;2023-10-09T01:44:51;12.2;;;5.3;;
80868;SDS011;70295;40.182;44.498;2023-10-09T01:46:51;13.2;;;5.8;;
80868;SDS011;70295;40.182;44.498;2023-10-09T01:48:51;11;;;5.3;;
80868;SDS011;70295;40.182;44.498;2023-10-09T01:50:51;12.5;;;6;;
80868;SDS011;70295;40.182;44.498;2023-10-09T01:52:51;13.1;;;6.3;;
80868;SDS011;70295;40.182;44.498;2023-10-09T01:54:52;12.6;;;5.5;;
80868;SDS011;70295;40.182;44.498;2023-10-09T01:56:50;13.1;;;6.1;;
80868;SDS011;70295;40.182;44.498;2023-10-09T01:58:51;11.5;;;6.2;;
80868;SDS011;70295;40.182;44.498;2023-10-09T02:00:51;14.7;;;6.7;;
80868;SDS011;70295;40.182;44.498;2023-10-09T02:02:50;13.8;;;6.6;;
80868;SDS011;70295;40.182;44.498;2023-10-09T02:04:51;12.2;;;6.1;;
80868;SDS011;70295;40.182;44.498;2023-10-09T02:06:51;14.8;;;6.7;;
80868;SDS011;70295;40.182;44.498;2023-10-09T02:08:52;12.8;;;6.3;;
80868;SDS011;70295;40.182;44.498;2023-10-09T02:10:50;12.5;;;6;;
80868;SDS011;70295;40.182;44.498;2023-10-09T02:14:51;15.8;;;6.7;;
80868;SDS011;70295;40.182;44.498;2023-10-09T02:16:51;12.2;;;6.3;;
80868;SDS011;70295;40.182;44.498;2023-10-09T02:18:51;12;;;5.9;;
80868;SDS011;70295;40.182;44.498;2023-10-09T02:22:50;13.9;;;6.8;;
80868;SDS011;70295;40.182;44.498;2023-10-09T02:24:51;12;;;5.7;;
80868;SDS011;70295;40.182;44.498;2023-10-09T02:26:50;11;;;5.8;;
80868;SDS011;70295;40.182;44.498;2023-10-09T02:28:51;12.4;;;5.6;;
80868;SDS011;70295;40.182;44.498;2023-10-09T02:30:51;10.3;;;5.2;;
80868;SDS011;70295;40.182;44.498;2023-10-09T02:32:50;10.8;;;5.5;;
80868;SDS011;70295;40.182;44.498;2023-10-09T02:34:51;11.1;;;5.6;;
80868;SDS011;70295;40.182;44.498;2023-10-09T02:36:51;11.3;;;5.2;;
80868;SDS011;70295;40.182;44.498;2023-10-09T02:38:51;11.4;;;5.1;;
80868;SDS011;70295;40.182;44.498;2023-10-09T02:40:52;10.5;;;5.3;;
80868;SDS011;70295;40.182;44.498;2023-10-09T02:42:50;11.5;;;5.4;;
80868;SDS011;70295;40.182;44.498;2023-10-09T02:44:51;10.2;;;5.3;;
80868;SDS011;70295;40.182;44.498;2023-10-09T02:46:51;12.9;;;5.6;;
80868;SDS011;70295;40.182;44.498;2023-10-09T02:48:50;10.8;;;5.4;;
80868;SDS011;70295;40.182;44.498;2023-10-09T02:50:51;10.3;;;5.5;;
80868;SDS011;70295;40.182;44.498;2023-10-09T02:52:50;10.9;;;5.6;;
80868;SDS011;70295;40.182;44.498;2023-10-09T02:54:56;11.9;;;5.5;;
80868;SDS011;70295;40.182;44.498;2023-10-09T02:56:53;10.9;;;5.1;;
80868;SDS011;70295;40.182;44.498;2023-10-09T02:58:51;11.2;;;5.3;;
80868;SDS011;70295;40.182;44.498;2023-10-09T03:00:51;12.5;;;5;;
80868;SDS011;70295;40.182;44.498;2023-10-09T03:02:51;11.9;;;5.8;;
80868;SDS011;70295;40.182;44.498;2023-10-09T03:10:27;11.3;;;5.4;;
80868;SDS011;70295;40.182;44.498;2023-10-09T03:12:27;9.5;;;4.9;;
80868;SDS011;70295;40.182;44.498;2023-10-09T03:14:26;10.3;;;5.4;;
80868;SDS011;70295;40.182;44.498;2023-10-09T03:16:27;14.1;;;5.1;;
80868;SDS011;70295;40.182;44.498;2023-10-09T03:18:27;12.1;;;6;;
80868;SDS011;70295;40.182;44.498;2023-10-09T03:20:27;10.2;;;5.5;;
80868;SDS011;70295;40.182;44.498;2023-10-09T03:22:27;10.6;;;5.7;;
80868;SDS011;70295;40.182;44.498;2023-10-09T03:24:27;9.7;;;5;;
80868;SDS011;70295;40.182;44.498;2023-10-09T03:26:27;11;;;5.6;;
80868;SDS011;70295;40.182;44.498;2023-10-09T03:28:27;9.7;;;5.1;;
80868;SDS011;70295;40.182;44.498;2023-10-09T03:30:27;10.1;;;4.5;;
80868;SDS011;70295;40.182;44.498;2023-10-09T03:32:27;11.2;;;5.6;;
80868;SDS011;70295;40.182;44.498;2023-10-09T03:34:27;10.2;;;5.3;;
80868;SDS011;70295;40.182;44.498;2023-10-09T03:36:27;10;;;5.5;;
80868;SDS011;70295;40.182;44.498;2023-10-09T03:38:27;9.1;;;5;;
80868;SDS011;70295;40.182;44.498;2023-10-09T03:40:27;11.7;;;5.4;;
80868;SDS011;70295;40.182;44.498;2023-10-09T03:42:27;11.2;;;5.6;;
80868;SDS011;70295;40.182;44.498;2023-10-09T03:44:27;10.6;;;5.2;;
80868;SDS011;70295;40.182;44.498;2023-10-09T03:46:27;10.9;;;5.5;;
80868;SDS011;70295;40.182;44.498;2023-10-09T03:48:27;12;;;5.8;;
80868;SDS011;70295;40.182;44.498;2023-10-09T03:50:27;12.7;;;5.9;;
80868;SDS011;70295;40.182;44.498;2023-10-09T03:52:27;11.3;;;5.4;;
80868;SDS011;70295;40.182;44.498;2023-10-09T03:54:27;13.5;;;5.5;;
80868;SDS011;70295;40.182;44.498;2023-10-09T03:56:26;12.9;;;5.3;;
80868;SDS011;70295;40.182;44.498;2023-10-09T03:58:27;11.2;;;5.9;;
80868;SDS011;70295;40.182;44.498;2023-10-09T04:00:27;12.8;;;6.1;;
80868;SDS011;70295;40.182;44.498;2023-10-09T04:02:27;13.4;;;6.2;;
80868;SDS011;70295;40.182;44.498;2023-10-09T04:04:28;14.9;;;6.6;;
80868;SDS011;70295;40.182;44.498;2023-10-09T04:06:27;15.5;;;6.9;;
80868;SDS011;70295;40.182;44.498;2023-10-09T04:08:28;14.3;;;6.8;;
80868;SDS011;70295;40.182;44.498;2023-10-09T04:10:27;14.5;;;6.8;;
80868;SDS011;70295;40.182;44.498;2023-10-09T04:12:27;14.9;;;6.8;;
80868;SDS011;70295;40.182;44.498;2023-10-09T04:14:27;15.1;;;6.5;;
80868;SDS011;70295;40.182;44.498;2023-10-09T04:16:27;13.1;;;6.8;;
80868;SDS011;70295;40.182;44.498;2023-10-09T04:18:27;14.4;;;6.4;;
80868;SDS011;70295;40.182;44.498;2023-10-09T04:20:27;14.3;;;7;;
80868;SDS011;70295;40.182;44.498;2023-10-09T04:22:27;13.9;;;7;;
80868;SDS011;70295;40.182;44.498;2023-10-09T04:24:27;14.7;;;6.6;;
80868;SDS011;70295;40.182;44.498;2023-10-09T04:26:26;17.8;;;7.3;;
80868;SDS011;70295;40.182;44.498;2023-10-09T04:28:27;20.6;;;7.9;;
80868;SDS011;70295;40.182;44.498;2023-10-09T04:30:28;16.5;;;6.4;;
80868;SDS011;70295;40.182;44.498;2023-10-09T04:32:27;18.9;;;6.9;;
80868;SDS011;70295;40.182;44.498;2023-10-09T04:34:27;13.6;;;7.5;;
80868;SDS011;70295;40.182;44.498;2023-10-09T04:36:27;17.6;;;8.8;;
80868;SDS011;70295;40.182;44.498;2023-10-09T04:38:27;18.3;;;7.8;;
80868;SDS011;70295;40.182;44.498;2023-10-09T04:40:27;15.8;;;7.3;;
80868;SDS011;70295;40.182;44.498;2023-10-09T04:42:27;18.7;;;7.6;;
80868;SDS011;70295;40.182;44.498;2023-10-09T04:44:27;20.5;;;9.8;;
80868;SDS011;70295;40.182;44.498;2023-10-09T04:46:27;16.5;;;7.2;;
80868;SDS011;70295;40.182;44.498;2023-10-09T04:48:27;14.9;;;7.4;;
80868;SDS011;70295;40.182;44.498;2023-10-09T04:50:27;13.6;;;6.4;;
80868;SDS011;70295;40.182;44.498;2023-10-09T04:52:27;12.6;;;6.7;;
80868;SDS011;70295;40.182;44.498;2023-10-09T04:54:27;13.5;;;7.2;;
80868;SDS011;70295;40.182;44.498;2023-10-09T04:56:27;17.3;;;7.5;;
80868;SDS011;70295;40.182;44.498;2023-10-09T04:58:27;14.9;;;7.4;;
80868;SDS011;70295;40.182;44.498;2023-10-09T05:00:27;14;;;7.1;;
80868;SDS011;70295;40.182;44.498;2023-10-09T05:02:27;17;;;8.6;;
80868;SDS011;70295;40.182;44.498;2023-10-09T05:04:27;18.2;;;8.8;;
80868;SDS011;70295;40.182;44.498;2023-10-09T05:06:27;18.5;;;7.9;;
80868;SDS011;70295;40.182;44.498;2023-10-09T05:08:27;20.7;;;8.3;;
80868;SDS011;70295;40.182;44.498;2023-10-09T05:10:27;15.2;;;6.5;;
80868;SDS011;70295;40.182;44.498;2023-10-09T05:12:27;18.1;;;10.4;;
80868;SDS011;70295;40.182;44.498;2023-10-09T05:14:27;22.4;;;11.3;;
80868;SDS011;70295;40.182;44.498;2023-10-09T05:16:27;16.4;;;10;;
80868;SDS011;70295;40.182;44.498;2023-10-09T05:18:27;16.2;;;9.1;;
80868;SDS011;70295;40.182;44.498;2023-10-09T05:20:27;17.3;;;8.2;;
80868;SDS011;70295;40.182;44.498;2023-10-09T05:22:27;15.1;;;7.9;;
80868;SDS011;70295;40.182;44.498;2023-10-09T05:24:27;20.6;;;9;;
80868;SDS011;70295;40.182;44.498;2023-10-09T05:26:27;16.3;;;9;;
80868;SDS011;70295;40.182;44.498;2023-10-09T05:28:27;17.1;;;8.3;;
80868;SDS011;70295;40.182;44.498;2023-10-09T05:30:27;17.7;;;10;;
80868;SDS011;70295;40.182;44.498;2023-10-09T05:32:27;22.5;;;10.2;;
80868;SDS011;70295;40.182;44.498;2023-10-09T05:34:27;20.3;;;10.2;;
80868;SDS011;70295;40.182;44.498;2023-10-09T05:36:27;20.7;;;10.4;;
80868;SDS011;70295;40.182;44.498;2023-10-09T05:38:27;21.4;;;11.9;;
80868;SDS011;70295;40.182;44.498;2023-10-09T05:40:27;18.6;;;8.8;;
80868;SDS011;70295;40.182;44.498;2023-10-09T05:42:27;15.4;;;7;;
80868;SDS011;70295;40.182;44.498;2023-10-09T05:44:27;18.9;;;7.6;;
80868;SDS011;70295;40.182;44.498;2023-10-09T05:46:27;16.4;;;8.2;;
80868;SDS011;70295;40.182;44.498;2023-10-09T05:48:27;22.8;;;10.6;;
80868;SDS011;70295;40.182;44.498;2023-10-09T05:50:27;23;;;8.3;;
80868;SDS011;70295;40.182;44.498;2023-10-09T05:52:27;19.6;;;8.2;;
80868;SDS011;70295;40.182;44.498;2023-10-09T05:54:27;15.3;;;7.1;;
80868;SDS011;70295;40.182;44.498;2023-10-09T05:56:27;15.7;;;6.9;;
80868;SDS011;70295;40.182;44.498;2023-10-09T05:58:26;13.6;;;6.6;;
80868;SDS011;70295;40.182;44.498;2023-10-09T06:00:27;13.8;;;6.2;;
80868;SDS011;70295;40.182;44.498;2023-10-09T06:02:27;12.3;;;5.5;;
80868;SDS011;70295;40.182;44.498;2023-10-09T06:04:27;11;;;5.8;;
80868;SDS011;70295;40.182;44.498;2023-10-09T06:06:27;12.5;;;6;;
80868;SDS011;70295;40.182;44.498;2023-10-09T06:08:29;10.9;;;5.3;;
80868;SDS011;70295;40.182;44.498;2023-10-09T06:10:27;13.4;;;5.6;;
80868;SDS011;70295;40.182;44.498;2023-10-09T06:12:27;10.1;;;5.3;;
80868;SDS011;70295;40.182;44.498;2023-10-09T06:14:27;11.3;;;5.3;;
80868;SDS011;70295;40.182;44.498;2023-10-09T06:16:27;13.7;;;5.6;;
80868;SDS011;70295;40.182;44.498;2023-10-09T06:18:27;11.7;;;4.8;;
80868;SDS011;70295;40.182;44.498;2023-10-09T06:20:27;11.2;;;5.3;;
80868;SDS011;70295;40.182;44.498;2023-10-09T06:22:27;10.4;;;5.1;;
80868;SDS011;70295;40.182;44.498;2023-10-09T06:24:26;10.4;;;4.8;;
80868;SDS011;70295;40.182;44.498;2023-10-09T06:26:27;10.2;;;5;;
80868;SDS011;70295;40.182;44.498;2023-10-09T06:28:27;12.8;;;5.4;;
80868;SDS011;70295;40.182;44.498;2023-10-09T06:30:27;11.6;;;5.1;;
80868;SDS011;70295;40.182;44.498;2023-10-09T06:32:27;11.2;;;5.4;;
80868;SDS011;70295;40.182;44.498;2023-10-09T06:34:28;12;;;5.5;;
80868;SDS011;70295;40.182;44.498;2023-10-09T06:36:26;13;;;6;;
80868;SDS011;70295;40.182;44.498;2023-10-09T06:38:27;12.4;;;5.8;;
80868;SDS011;70295;40.182;44.498;2023-10-09T06:42:27;14.4;;;6.7;;
80868;SDS011;70295;40.182;44.498;2023-10-09T06:44:28;14.7;;;7.1;;
80868;SDS011;70295;40.182;44.498;2023-10-09T06:46:27;12.5;;;6;;
80868;SDS011;70295;40.182;44.498;2023-10-09T06:48:27;13.4;;;6.2;;
80868;SDS011;70295;40.182;44.498;2023-10-09T06:50:27;12.9;;;5.2;;
80868;SDS011;70295;40.182;44.498;2023-10-09T06:52:27;12.5;;;5.9;;
80868;SDS011;70295;40.182;44.498;2023-10-09T06:54:27;10.5;;;5.2;;
80868;SDS011;70295;40.182;44.498;2023-10-09T06:56:27;10.1;;;5.3;;
80868;SDS011;70295;40.182;44.498;2023-10-09T06:58:27;15.9;;;5.8;;
80868;SDS011;70295;40.182;44.498;2023-10-09T07:02:27;11.6;;;6.7;;
80868;SDS011;70295;40.182;44.498;2023-10-09T07:04:27;11.5;;;5.6;;
80868;SDS011;70295;40.182;44.498;2023-10-09T07:06:26;13.1;;;7;;
80868;SDS011;70295;40.182;44.498;2023-10-09T07:08:27;10.8;;;5.7;;
80868;SDS011;70295;40.182;44.498;2023-10-09T07:10:26;11.6;;;6.7;;
80868;SDS011;70295;40.182;44.498;2023-10-09T07:12:27;9.8;;;5.6;;
80868;SDS011;70295;40.182;44.498;2023-10-09T07:14:27;13.9;;;5.8;;
80868;SDS011;70295;40.182;44.498;2023-10-09T07:16:26;14.4;;;5.4;;
80868;SDS011;70295;40.182;44.498;2023-10-09T07:18:27;13.6;;;6.4;;
80868;SDS011;70295;40.182;44.498;2023-10-09T07:20:27;14.3;;;6.5;;
80868;SDS011;70295;40.182;44.498;2023-10-09T07:22:26;13.7;;;6;;
80868;SDS011;70295;40.182;44.498;2023-10-09T07:24:27;11.2;;;6.6;;
80868;SDS011;70295;40.182;44.498;2023-10-09T07:26:26;11.7;;;5.1;;
80868;SDS011;70295;40.182;44.498;2023-10-09T07:28:27;10.4;;;5.1;;
80868;SDS011;70295;40.182;44.498;2023-10-09T07:30:27;9.7;;;5.2;;
80868;SDS011;70295;40.182;44.498;2023-10-09T07:32:26;10.7;;;5.1;;
80868;SDS011;70295;40.182;44.498;2023-10-09T07:34:27;11.2;;;5.3;;
80868;SDS011;70295;40.182;44.498;2023-10-09T07:36:26;12;;;5.3;;
80868;SDS011;70295;40.182;44.498;2023-10-09T07:38:27;10.7;;;4.8;;
80868;SDS011;70295;40.182;44.498;2023-10-09T07:40:27;10.1;;;5.1;;
80868;SDS011;70295;40.182;44.498;2023-10-09T07:42:26;11.9;;;5.1;;
80868;SDS011;70295;40.182;44.498;2023-10-09T07:44:26;11.8;;;5.6;;
80868;SDS011;70295;40.182;44.498;2023-10-09T07:46:27;10.7;;;5.4;;
80868;SDS011;70295;40.182;44.498;2023-10-09T07:48:26;11.9;;;5.2;;
80868;SDS011;70295;40.182;44.498;2023-10-09T07:50:28;14;;;5.9;;
80868;SDS011;70295;40.182;44.498;2023-10-09T07:52:26;11.4;;;5.7;;
80868;SDS011;70295;40.182;44.498;2023-10-09T07:54:27;9.2;;;5.2;;
80868;SDS011;70295;40.182;44.498;2023-10-09T07:56:27;11.6;;;5.5;;
80868;SDS011;70295;40.182;44.498;2023-10-09T07:58:28;11.7;;;5.8;;
80868;SDS011;70295;40.182;44.498;2023-10-09T08:00:27;11.8;;;6.1;;
80868;SDS011;70295;40.182;44.498;2023-10-09T08:02:27;13.1;;;5.3;;
80868;SDS011;70295;40.182;44.498;2023-10-09T08:04:27;10.4;;;5.1;;
80868;SDS011;70295;40.182;44.498;2023-10-09T08:06:27;10.1;;;5.3;;
80868;SDS011;70295;40.182;44.498;2023-10-09T08:08:26;10.6;;;5.2;;
80868;SDS011;70295;40.182;44.498;2023-10-09T08:10:27;12.1;;;5.6;;
80868;SDS011;70295;40.182;44.498;2023-10-09T08:12:27;14.2;;;6.2;;
80868;SDS011;70295;40.182;44.498;2023-10-09T08:14:27;13.8;;;6.2;;
80868;SDS011;70295;40.182;44.498;2023-10-09T08:16:27;13.8;;;5.9;;
80868;SDS011;70295;40.182;44.498;2023-10-09T08:18:26;11.7;;;5.9;;
80868;SDS011;70295;40.182;44.498;2023-10-09T08:20:27;11.9;;;6.2;;
80868;SDS011;70295;40.182;44.498;2023-10-09T08:22:28;12.8;;;6.7;;
80868;SDS011;70295;40.182;44.498;2023-10-09T08:24:26;13.1;;;5.9;;
80868;SDS011;70295;40.182;44.498;2023-10-09T08:26:27;13.1;;;6.3;;
80868;SDS011;70295;40.182;44.498;2023-10-09T08:28:26;11.7;;;5.9;;
80868;SDS011;70295;40.182;44.498;2023-10-09T08:30:27;11.6;;;6.1;;
80868;SDS011;70295;40.182;44.498;2023-10-09T08:32:27;14.9;;;6.6;;
80868;SDS011;70295;40.182;44.498;2023-10-09T08:34:26;13.7;;;6.7;;
80868;SDS011;70295;40.182;44.498;2023-10-09T08:36:28;14.6;;;6.5;;
80868;SDS011;70295;40.182;44.498;2023-10-09T08:38:26;12.7;;;6.7;;
80868;SDS011;70295;40.182;44.498;2023-10-09T08:40:29;13.1;;;6.7;;
80868;SDS011;70295;40.182;44.498;2023-10-09T08:42:27;13.9;;;6.4;;
80868;SDS011;70295;40.182;44.498;2023-10-09T08:44:27;13.1;;;7.5;;
80868;SDS011;70295;40.182;44.498;2023-10-09T08:46:27;15.3;;;7.1;;
80868;SDS011;70295;40.182;44.498;2023-10-09T08:48:28;9.4;;;5.6;;
80868;SDS011;70295;40.182;44.498;2023-10-09T08:50:26;12.6;;;6.3;;
80868;SDS011;70295;40.182;44.498;2023-10-09T08:52:27;12;;;6.3;;
80868;SDS011;70295;40.182;44.498;2023-10-09T08:54:26;13;;;6.1;;
80868;SDS011;70295;40.182;44.498;2023-10-09T08:56:26;13.1;;;6.4;;
80868;SDS011;70295;40.182;44.498;2023-10-09T08:58:27;15.8;;;6.6;;
80868;SDS011;70295;40.182;44.498;2023-10-09T09:00:26;11;;;6.1;;
80868;SDS011;70295;40.182;44.498;2023-10-09T09:02:27;14.3;;;6;;
80868;SDS011;70295;40.182;44.498;2023-10-09T09:06:27;12.4;;;6.1;;
80868;SDS011;70295;40.182;44.498;2023-10-09T09:08:28;10.4;;;6.1;;
80868;SDS011;70295;40.182;44.498;2023-10-09T09:10:28;11.2;;;6.2;;
80868;SDS011;70295;40.182;44.498;2023-10-09T09:12:26;12.2;;;5.8;;
80868;SDS011;70295;40.182;44.498;2023-10-09T09:16:27;10.4;;;5.5;;
80868;SDS011;70295;40.182;44.498;2023-10-09T09:18:27;10.5;;;5.6;;
80868;SDS011;70295;40.182;44.498;2023-10-09T09:20:27;11.8;;;5.7;;
80868;SDS011;70295;40.182;44.498;2023-10-09T09:22:26;12.6;;;6.8;;
80868;SDS011;70295;40.182;44.498;2023-10-09T09:24:27;10.8;;;6.5;;
80868;SDS011;70295;40.182;44.498;2023-10-09T09:28:26;12.3;;;7.6;;
80868;SDS011;70295;40.182;44.498;2023-10-09T09:30:27;15.2;;;6.2;;
80868;SDS011;70295;40.182;44.498;2023-10-09T09:32:28;12.5;;;6.6;;
80868;SDS011;70295;40.182;44.498;2023-10-09T09:34:27;13.8;;;6.9;;
80868;SDS011;70295;40.182;44.498;2023-10-09T09:36:26;13.4;;;7;;
80868;SDS011;70295;40.182;44.498;2023-10-09T09:38:28;13.1;;;6.7;;
80868;SDS011;70295;40.182;44.498;2023-10-09T09:40:26;11.7;;;7;;
80868;SDS011;70295;40.182;44.498;2023-10-09T09:42:31;13.2;;;6.3;;
80868;SDS011;70295;40.182;44.498;2023-10-09T09:44:26;13;;;6.7;;
80868;SDS011;70295;40.182;44.498;2023-10-09T09:46:27;12.6;;;6.5;;
80868;SDS011;70295;40.182;44.498;2023-10-09T09:48:27;12.9;;;6.3;;
80868;SDS011;70295;40.182;44.498;2023-10-09T09:50:27;13.6;;;6.2;;
80868;SDS011;70295;40.182;44.498;2023-10-09T09:52:28;15.4;;;7;;
80868;SDS011;70295;40.182;44.498;2023-10-09T09:54:26;15.4;;;7.3;;
80868;SDS011;70295;40.182;44.498;2023-10-09T09:56:27;13.2;;;7.1;;
80868;SDS011;70295;40.182;44.498;2023-10-09T09:58:27;14.5;;;6.4;;
80868;SDS011;70295;40.182;44.498;2023-10-09T10:00:29;12.7;;;6.3;;
80868;SDS011;70295;40.182;44.498;2023-10-09T10:02:30;13.9;;;6.8;;
80868;SDS011;70295;40.182;44.498;2023-10-09T10:04:28;13.4;;;6.4;;
80868;SDS011;70295;40.182;44.498;2023-10-09T10:06:27;11.7;;;6.7;;
80868;SDS011;70295;40.182;44.498;2023-10-09T10:08:26;12.1;;;6.2;;
80868;SDS011;70295;40.182;44.498;2023-10-09T10:14:26;9.9;;;6.3;;
80868;SDS011;70295;40.182;44.498;2023-10-09T10:16:26;11.7;;;5.8;;
80868;SDS011;70295;40.182;44.498;2023-10-09T10:20:26;14.3;;;6.3;;
80868;SDS011;70295;40.182;44.498;2023-10-09T10:22:27;12.7;;;7.1;;
80868;SDS011;70295;40.182;44.498;2023-10-09T10:26:26;11.8;;;6.4;;
80868;SDS011;70295;40.182;44.498;2023-10-09T10:28:27;10.6;;;5.8;;
80868;SDS011;70295;40.182;44.498;2023-10-09T10:30:28;12.6;;;6.4;;
80868;SDS011;70295;40.182;44.498;2023-10-09T10:32:41;9.8;;;6.5;;
80868;SDS011;70295;40.182;44.498;2023-10-09T10:34:26;10.7;;;6.3;;
80868;SDS011;70295;40.182;44.498;2023-10-09T10:36:27;13.3;;;6.5;;
80868;SDS011;70295;40.182;44.498;2023-10-09T10:40:26;11;;;6.4;;
80868;SDS011;70295;40.182;44.498;2023-10-09T10:42:26;11.8;;;6.9;;
80868;SDS011;70295;40.182;44.498;2023-10-09T10:44:28;11.2;;;6.4;;
80868;SDS011;70295;40.182;44.498;2023-10-09T10:46:26;11.3;;;6.7;;
80868;SDS011;70295;40.182;44.498;2023-10-09T10:48:26;11.5;;;6.5;;
80868;SDS011;70295;40.182;44.498;2023-10-09T10:50:26;11.3;;;6.7;;
80868;SDS011;70295;40.182;44.498;2023-10-09T10:52:27;9.9;;;6.9;;
80868;SDS011;70295;40.182;44.498;2023-10-09T10:54:27;13;;;6.7;;
80868;SDS011;70295;40.182;44.498;2023-10-09T10:56:26;10.9;;;6.8;;
80868;SDS011;70295;40.182;44.498;2023-10-09T10:58:26;10.6;;;6.9;;
80868;SDS011;70295;40.182;44.498;2023-10-09T11:00:27;12.6;;;6.8;;
80868;SDS011;70295;40.182;44.498;2023-10-09T11:02:26;12.9;;;6.6;;
80868;SDS011;70295;40.182;44.498;2023-10-09T11:04:27;11;;;6.4;;
80868;SDS011;70295;40.182;44.498;2023-10-09T11:06:28;16.3;;;7.3;;
80868;SDS011;70295;40.182;44.498;2023-10-09T11:08:26;16.7;;;6.9;;
80868;SDS011;70295;40.182;44.498;2023-10-09T11:10:26;11.1;;;6.8;;
80868;SDS011;70295;40.182;44.498;2023-10-09T11:12:28;10.1;;;6.3;;
80868;SDS011;70295;40.182;44.498;2023-10-09T11:14:26;11.8;;;6.5;;
80868;SDS011;70295;40.182;44.498;2023-10-09T11:16:26;11.9;;;7.2;;
80868;SDS011;70295;40.182;44.498;2023-10-09T11:18:26;15.4;;;7.6;;
80868;SDS011;70295;40.182;44.498;2023-10-09T11:20:26;12.8;;;7.1;;
80868;SDS011;70295;40.182;44.498;2023-10-09T11:22:26;14.8;;;7.2;;
80868;SDS011;70295;40.182;44.498;2023-10-09T11:24:27;10.8;;;7.2;;
80868;SDS011;70295;40.182;44.498;2023-10-09T11:26:28;10.7;;;6.8;;
80868;SDS011;70295;40.182;44.498;2023-10-09T11:28:26;14.4;;;7.6;;
80868;SDS011;70295;40.182;44.498;2023-10-09T11:32:28;12.8;;;8.2;;
80868;SDS011;70295;40.182;44.498;2023-10-09T11:34:26;13.7;;;8.1;;
80868;SDS011;70295;40.182;44.498;2023-10-09T11:36:26;18.7;;;9.2;;
80868;SDS011;70295;40.182;44.498;2023-10-09T11:38:26;15.3;;;8.1;;
80868;SDS011;70295;40.182;44.498;2023-10-09T11:42:28;15.6;;;8.7;;
80868;SDS011;70295;40.182;44.498;2023-10-09T11:46:26;18.5;;;8.9;;
80868;SDS011;70295;40.182;44.498;2023-10-09T11:48:26;15.1;;;8;;
80868;SDS011;70295;40.182;44.498;2023-10-09T11:52:26;22.3;;;8.3;;
80868;SDS011;70295;40.182;44.498;2023-10-09T11:56:26;12.2;;;7.3;;
80868;SDS011;70295;40.182;44.498;2023-10-09T11:58:26;14.1;;;7.5;;
80868;SDS011;70295;40.182;44.498;2023-10-09T12:00:26;13.5;;;6.9;;
80868;SDS011;70295;40.182;44.498;2023-10-09T12:02:26;26.9;;;8.2;;
80868;SDS011;70295;40.182;44.498;2023-10-09T12:04:26;13.5;;;6.6;;
80868;SDS011;70295;40.182;44.498;2023-10-09T12:06:26;17.3;;;7.5;;
80868;SDS011;70295;40.182;44.498;2023-10-09T12:08:27;16.2;;;7.5;;
80868;SDS011;70295;40.182;44.498;2023-10-09T12:10:26;14.4;;;6.6;;
80868;SDS011;70295;40.182;44.498;2023-10-09T12:12:26;17.7;;;7.3;;
80868;SDS011;70295;40.182;44.498;2023-10-09T12:14:26;17.6;;;6.8;;
80868;SDS011;70295;40.182;44.498;2023-10-09T12:16:26;14.5;;;7.3;;
80868;SDS011;70295;40.182;44.498;2023-10-09T12:18:26;12;;;7.5;;
80868;SDS011;70295;40.182;44.498;2023-10-09T12:20:26;10.2;;;7.1;;
80868;SDS011;70295;40.182;44.498;2023-10-09T12:22:26;11.9;;;6.2;;
80868;SDS011;70295;40.182;44.498;2023-10-09T12:24:27;25;;;7.3;;
80868;SDS011;70295;40.182;44.498;2023-10-09T12:26:26;11.6;;;6.8;;
80868;SDS011;70295;40.182;44.498;2023-10-09T12:28:26;11.1;;;6.8;;
80868;SDS011;70295;40.182;44.498;2023-10-09T12:30:26;9.8;;;7;;
80868;SDS011;70295;40.182;44.498;2023-10-09T12:32:26;10.1;;;7.1;;
80868;SDS011;70295;40.182;44.498;2023-10-09T12:34:28;11.8;;;7.2;;
80868;SDS011;70295;40.182;44.498;2023-10-09T12:36:26;10.8;;;7.2;;
80868;SDS011;70295;40.182;44.498;2023-10-09T12:38:26;11.9;;;7.2;;
80868;SDS011;70295;40.182;44.498;2023-10-09T12:40:26;14.2;;;7.9;;
80868;SDS011;70295;40.182;44.498;2023-10-09T12:42:26;12.6;;;8.4;;
80868;SDS011;70295;40.182;44.498;2023-10-09T12:44:26;13.8;;;7.9;;
80868;SDS011;70295;40.182;44.498;2023-10-09T12:46:26;14.4;;;7.9;;